Weslaco Annex Farm's Hourly Summary for Saturday, July 7, 2018
Hour Temp
(f)
RH
(%)
Solar Rad.
(MJ/m2)
Rainfall
(in)
Wind
(mph)
7/7/2018 12:00 AM 78 84 0 0 1.23
7/7/2018 1:00 AM 77 87 0 0 0.86
7/7/2018 2:00 AM 76 92 0 0 1.57
7/7/2018 3:00 AM 75 94 0 0 1.12
7/7/2018 4:00 AM 75 95 0 0 0.95
7/7/2018 5:00 AM 75 95 0 0 0.98
7/7/2018 6:00 AM 74 96 0 0 1.02
7/7/2018 7:00 AM 75 95 0.16 0 1.44
7/7/2018 8:00 AM 80 84 0.63 0 1.57
7/7/2018 9:00 AM 82 79 0.87 0 2.72
7/7/2018 10:00 AM 84 72 1.06 0 2.97
7/7/2018 11:00 AM 87 64 1.78 0 2.76
7/7/2018 12:00 PM 88 63 1.35 0 4.38
7/7/2018 1:00 PM 83 73 0.65 0.01 7.2
7/7/2018 2:00 PM 76 90 0.2 0 8.17
7/7/2018 3:00 PM 76 92 0.43 0 5.21
7/7/2018 4:00 PM 81 77 1.42 0 3.08
7/7/2018 5:00 PM 85 67 1.25 0 2.83
7/7/2018 6:00 PM 87 63 0.83 0 3.13
7/7/2018 7:00 PM 86 59 0.36 0 4.79
7/7/2018 8:00 PM 83 70 0.03 0 5.47
7/7/2018 9:00 PM 80 82 0 0 4.54
7/7/2018 10:00 PM 78 85 0 0 3.9
7/7/2018 11:00 PM 77 88 0 0 2
Data Summary 79 81 11.02 0.01 3.08